地図

経路データ

SID SEASON NUMBER BASIN SUBBASIN NAME ISO_TIME NATURE LAT LON WMO_WIND WMO_PRES WMO_AGENCY TRACK_TYPE DIST2LAND LANDFALL IFLAG USA_AGENCY USA_ATCF_ID USA_LAT USA_LON USA_RECORD USA_STATUS USA_WIND USA_PRES USA_SSHS USA_R34_NE USA_R34_SE USA_R34_SW USA_R34_NW USA_R50_NE USA_R50_SE USA_R50_SW USA_R50_NW USA_R64_NE USA_R64_SE USA_R64_SW USA_R64_NW USA_POCI USA_ROCI USA_RMW USA_EYE TOKYO_LAT TOKYO_LON TOKYO_GRADE TOKYO_WIND TOKYO_PRES TOKYO_R50_DIR TOKYO_R50_LONG TOKYO_R50_SHORT TOKYO_R30_DIR TOKYO_R30_LONG TOKYO_R30_SHORT TOKYO_LAND CMA_LAT CMA_LON CMA_CAT CMA_WIND CMA_PRES HKO_LAT HKO_LON HKO_CAT HKO_WIND HKO_PRES NEWDELHI_LAT NEWDELHI_LON NEWDELHI_GRADE NEWDELHI_WIND NEWDELHI_PRES NEWDELHI_CI NEWDELHI_DP NEWDELHI_POCI REUNION_LAT REUNION_LON REUNION_TYPE REUNION_WIND REUNION_PRES REUNION_TNUM REUNION_CI REUNION_RMW REUNION_R34_NE REUNION_R34_SE REUNION_R34_SW REUNION_R34_NW REUNION_R50_NE REUNION_R50_SE REUNION_R50_SW REUNION_R50_NW REUNION_R64_NE REUNION_R64_SE REUNION_R64_SW REUNION_R64_NW BOM_LAT BOM_LON BOM_TYPE BOM_WIND BOM_PRES BOM_TNUM BOM_CI BOM_RMW BOM_R34_NE BOM_R34_SE BOM_R34_SW BOM_R34_NW BOM_R50_NE BOM_R50_SE BOM_R50_SW BOM_R50_NW BOM_R64_NE BOM_R64_SE BOM_R64_SW BOM_R64_NW BOM_ROCI BOM_POCI BOM_EYE BOM_POS_METHOD BOM_PRES_METHOD NADI_LAT NADI_LON NADI_CAT NADI_WIND NADI_PRES WELLINGTON_LAT WELLINGTON_LON WELLINGTON_WIND WELLINGTON_PRES DS824_LAT DS824_LON DS824_STAGE DS824_WIND DS824_PRES TD9636_LAT TD9636_LON TD9636_STAGE TD9636_WIND TD9636_PRES TD9635_LAT TD9635_LON TD9635_WIND TD9635_PRES TD9635_ROCI NEUMANN_LAT NEUMANN_LON NEUMANN_CLASS NEUMANN_WIND NEUMANN_PRES MLC_LAT MLC_LON MLC_CLASS MLC_WIND MLC_PRES USA_GUST BOM_GUST BOM_GUST_PER REUNION_GUST REUNION_GUST_PER USA_SEAHGT USA_SEARAD_NE USA_SEARAD_SE USA_SEARAD_SW USA_SEARAD_NW STORM_SPEED STORM_DIR
1925054S15120 1925 12 SI WA NOT_NAMED 1925-02-23 01:00:00 NR -15.0000 120.000 bom main 340 332 ______O_______ -1 -15.0000 120.000 3 191
1925054S15120 1925 12 SI WA NOT_NAMED 1925-02-23 03:00:00 NR -15.1100 119.982 main 332 317 ______P_______ -1 -15.1100 119.982 3 187
1925054S15120 1925 12 SI WA NOT_NAMED 1925-02-23 06:00:00 NR -15.2749 119.953 main 317 317 ______P_______ -1 -15.2749 119.953 3 189
1925054S15120 1925 12 SI WA NOT_NAMED 1925-02-23 09:00:00 NR -15.4394 119.924 main 319 306 ______P_______ -1 -15.4394 119.924 3 190
1925054S15120 1925 12 SI WA NOT_NAMED 1925-02-23 12:00:00 NR -15.6032 119.891 main 306 294 ______P_______ -1 -15.6032 119.891 3 191
1925054S15120 1925 12 SI WA NOT_NAMED 1925-02-23 15:00:00 NR -15.7662 119.856 main 294 294 ______P_______ -1 -15.7662 119.856 3 191
1925054S15120 1925 12 SI WA NOT_NAMED 1925-02-23 18:00:00 NR -15.9280 119.816 main 298 288 ______P_______ -1 -15.9280 119.816 3 193
1925054S15120 1925 12 SI WA NOT_NAMED 1925-02-23 21:00:00 NR -16.0885 119.770 main 288 283 ______P_______ -1 -16.0885 119.770 3 197
1925054S15120 1925 12 SI WA NOT_NAMED 1925-02-24 00:00:00 NR -16.2474 119.719 main 293 288 ______P_______ -1 -16.2474 119.719 3 199
1925054S15120 1925 12 SI WA NOT_NAMED 1925-02-24 01:00:00 NR -16.3000 119.700 bom main 288 284 ______O_______ -1 -16.3000 119.700 3 200
1925054S15120 1925 12 SI WA NOT_NAMED 1925-02-24 03:00:00 NR -16.4047 119.660 main 284 284 ______P_______ -1 -16.4047 119.660 3 200
1925054S15120 1925 12 SI WA NOT_NAMED 1925-02-24 06:00:00 NR -16.5624 119.597 main 287 284 ______P_______ -1 -16.5624 119.597 3 201
1925054S15120 1925 12 SI WA NOT_NAMED 1925-02-24 09:00:00 NR -16.7241 119.531 main 294 287 ______P_______ -1 -16.7241 119.531 4 201
1925054S15120 1925 12 SI WA NOT_NAMED 1925-02-24 12:00:00 NR -16.8933 119.468 main 287 287 ______P_______ -1 -16.8933 119.468 4 199
1925054S15120 1925 12 SI WA NOT_NAMED 1925-02-24 15:00:00 NR -17.0735 119.410 main 292 283 ______P_______ -1 -17.0735 119.410 4 196
1925054S15120 1925 12 SI WA NOT_NAMED 1925-02-24 18:00:00 NR -17.2684 119.361 main 283 282 ______P_______ -1 -17.2684 119.361 4 191
1925054S15120 1925 12 SI WA NOT_NAMED 1925-02-24 21:00:00 NR -17.4815 119.324 main 282 262 ______P_______ -1 -17.4815 119.324 5 187
1925054S15120 1925 12 SI WA NOT_NAMED 1925-02-25 00:00:00 NR -17.7163 119.303 main 262 251 ______P_______ -1 -17.7163 119.303 5 183
1925054S15120 1925 12 SI WA NOT_NAMED 1925-02-25 01:00:00 NR -17.8000 119.300 bom main 251 251 ______O_______ -1 -17.8000 119.300 1 322
1925054S15120 1925 12 SI WA NOT_NAMED 1925-02-25 03:00:00 NR -17.6724 119.265 main 262 262 ______P_______ -1 -17.6724 119.265 4 348
1925054S15120 1925 12 SI WA NOT_NAMED 1925-02-25 06:00:00 NR -17.4479 119.219 main 296 296 ______P_______ -1 -17.4479 119.219 4 349
1925054S15120 1925 12 SI WA NOT_NAMED 1925-02-25 09:00:00 NR -17.2855 119.194 main 301 301 ______P_______ -1 -17.2855 119.194 2 0
1925054S15120 1925 12 SI WA NOT_NAMED 1925-02-25 12:00:00 NR -17.2997 119.200 main 301 275 ______P_______ -1 -17.2997 119.200 3 171
1925054S15120 1925 12 SI WA NOT_NAMED 1925-02-25 15:00:00 NR -17.6051 119.250 main 275 194 ______P_______ -1 -17.6051 119.250 10 172
1925054S15120 1925 12 SI WA NOT_NAMED 1925-02-25 18:00:00 NR -18.3164 119.357 main 194 64 ______P_______ -1 -18.3164 119.357 20 172
1925054S15120 1925 12 SI WA NOT_NAMED 1925-02-25 21:00:00 NR -19.5494 119.536 main 64 11 ______P_______ -1 -19.5494 119.536 27 172
1925054S15120 1925 12 SI WA NOT_NAMED 1925-02-25 21:50:00 NR -20.0000 119.600 bom main 11 0 ______O_______ -1 -20.0000 119.600 35 172
1925054S15120 1925 12 SI WA NOT_NAMED 1925-02-25 23:00:00 NR -20.7000 119.700 bom main 0 0 ______O_______ -1 -20.7000 119.700 27 178
1925054S15120 1925 12 SI WA NOT_NAMED 1925-02-26 00:00:00 NR -20.9814 119.639 main 0 0 ______P_______ -1 -20.9814 119.639 13 205
1925054S15120 1925 12 SI WA NOT_NAMED 1925-02-26 01:00:00 NR -21.1000 119.500 bom main 0 0 ______O_______ -1 -21.1000 119.500 14 204
1925054S15120 1925 12 SI WA NOT_NAMED 1925-02-26 03:00:00 NR -21.6124 119.338 main 0 0 ______P_______ -1 -21.6124 119.338 18 193
1925054S15120 1925 12 SI WA NOT_NAMED 1925-02-26 06:00:00 NR -22.5436 119.138 main 0 0 ______P_______ -1 -22.5436 119.138 20 191
1925054S15120 1925 12 SI WA NOT_NAMED 1925-02-26 08:00:00 NR -23.2000 119.000 bom main 0 0 ______O_______ -1 -23.2000 119.000 20 192
1925054S15120 1925 12 SI WA NOT_NAMED 1925-02-26 09:00:00 NR -23.5212 118.921 main 0 0 ______P_______ -1 -23.5212 118.921 19 195
1925054S15120 1925 12 SI WA NOT_NAMED 1925-02-26 12:00:00 NR -24.4446 118.639 main 0 0 ______P_______ -1 -24.4446 118.639 19 197
1925054S15120 1925 12 SI WA NOT_NAMED 1925-02-26 15:00:00 NR -25.3166 118.300 main 0 0 ______P_______ -1 -25.3166 118.300 18 201
1925054S15120 1925 12 SI WA NOT_NAMED 1925-02-26 18:00:00 NR -26.1488 117.914 main 0 0 ______P_______ -1 -26.1488 117.914 18 204
1925054S15120 1925 12 SI WA NOT_NAMED 1925-02-26 21:00:00 NR -26.9527 117.494 main 0 0 ______P_______ -1 -26.9527 117.494 18 206
1925054S15120 1925 12 SI WA NOT_NAMED 1925-02-27 00:00:00 NR -27.7395 117.051 main 0 0 ______P_______ -1 -27.7395 117.051 18 207
1925054S15120 1925 12 SI WA NOT_NAMED 1925-02-27 01:00:00 NR -28.0000 116.900 bom main 0 ______O_______ -1 -28.0000 116.900 18 206

IBTrACS Databaseについて

本データベースは、米国NOAAが公開する1842年以降の世界の熱帯低気圧のベストトラックデータアーカイブInternational Best Track Archive for Climate Stewardship (IBTrACS)を、ウェブで閲覧しやすい形式に変換したものです。

最終更新日:2021-12-06